Time;durP1;ratioP1;P1;durP2;ratioP2;P2;SDS_P1;SDS_P2;PMS_P1;PMS_P2;Temp;Humidity;BMP_temperature;BMP_pressure;BME280_temperature;BME280_humidity;BME280_pressure;Samples;Min_cycle;Max_cycle;Signal;HPM_P1;HPM_P2
2020/12/20 00:02:12;;;;;;;62.28;7.60;;;7.50;1.00;;;;;;5054486;28;20209;-70
2020/12/20 00:04:39;;;;;;;60.63;7.50;;;7.50;1.00;;;;;;5053002;28;20207;-70
2020/12/20 00:07:07;;;;;;;61.35;7.70;;;7.50;1.00;;;;;;5052804;28;20737;-70
2020/12/20 00:09:33;;;;;;;61.75;6.95;;;7.50;1.00;;;;;;5052834;28;20226;-70
2020/12/20 00:12:00;;;;;;;62.38;7.80;;;7.50;1.00;;;;;;5052647;28;20208;-70
2020/12/20 00:14:29;;;;;;;64.80;7.28;;;7.50;1.00;;;;;;5052424;28;20222;-69
2020/12/20 00:17:03;;;;;;;61.75;7.60;;;7.50;1.00;;;;;;5052499;28;20202;-69
2020/12/20 00:19:30;;;;;;;61.55;7.70;;;7.60;1.00;;;;;;5052883;28;20285;-70
2020/12/20 00:21:59;;;;;;;61.83;8.45;;;7.60;1.00;;;;;;5052820;28;20679;-69
2020/12/20 00:24:25;;;;;;;65.00;7.43;;;7.60;1.00;;;;;;5056327;28;20240;-69
2020/12/20 00:26:52;;;;;;;61.17;7.28;;;7.60;1.00;;;;;;5058895;28;20292;-70
2020/12/20 00:29:19;;;;;;;62.28;7.57;;;7.50;1.00;;;;;;5052151;28;20241;-70
2020/12/20 00:31:45;;;;;;;61.75;7.82;;;7.60;1.00;;;;;;5052747;28;20566;-70
2020/12/20 00:34:11;;;;;;;61.78;7.90;;;7.60;1.00;;;;;;5051886;28;20229;-70
2020/12/20 00:36:38;;;;;;;60.03;7.10;;;7.60;1.00;;;;;;5052565;28;20495;-70
2020/12/20 00:39:05;;;;;;;62.33;7.80;;;7.60;1.00;;;;;;5052080;28;20467;-70
2020/12/20 00:41:32;;;;;;;61.72;7.72;;;7.60;1.00;;;;;;5052396;28;20205;-70
2020/12/20 00:43:58;;;;;;;63.65;7.18;;;7.50;1.00;;;;;;5051575;28;20207;-70
2020/12/20 00:46:25;;;;;;;61.73;8.07;;;7.60;1.00;;;;;;5052325;28;20206;-70
2020/12/20 00:48:51;;;;;;;62.88;7.70;;;7.50;1.00;;;;;;5052553;28;20507;-70
2020/12/20 00:51:17;;;;;;;60.40;6.78;;;7.50;1.00;;;;;;5052382;28;20209;-70
2020/12/20 00:53:44;;;;;;;61.50;7.38;;;7.50;1.00;;;;;;5052073;28;20241;-70
2020/12/20 00:56:14;;;;;;;61.97;7.53;;;7.50;1.00;;;;;;5051652;28;20206;-70
2020/12/20 00:58:41;;;;;;;62.13;7.50;;;7.50;1.00;;;;;;5051639;28;20709;-70
2020/12/20 01:01:08;;;;;;;61.60;7.30;;;7.50;1.00;;;;;;5052102;28;20452;-70
2020/12/20 01:03:35;;;;;;;62.65;7.55;;;7.50;1.00;;;;;;5051736;28;20489;-70
2020/12/20 01:06:02;;;;;;;62.67;7.20;;;7.50;1.00;;;;;;5051454;28;20206;-70
2020/12/20 01:08:28;;;;;;;61.13;7.82;;;7.50;1.00;;;;;;5051977;28;20286;-70
2020/12/20 01:10:54;;;;;;;60.20;7.13;;;7.50;1.00;;;;;;5051564;28;20304;-70
2020/12/20 01:13:22;;;;;;;61.13;6.78;;;7.50;1.00;;;;;;5051932;28;20573;-70
2020/12/20 01:15:48;;;;;;;60.65;6.60;;;7.50;1.00;;;;;;5051412;28;20214;-70
2020/12/20 01:18:14;;;;;;;63.20;7.43;;;7.50;1.00;;;;;;5052013;28;20589;-70
2020/12/20 01:20:41;;;;;;;62.92;6.97;;;7.40;1.00;;;;;;5051474;28;20669;-69
2020/12/20 01:23:07;;;;;;;60.63;6.90;;;7.40;1.00;;;;;;5051478;28;20265;-69
2020/12/20 01:25:34;;;;;;;61.15;6.82;;;7.40;1.00;;;;;;5051267;28;20272;-69
2020/12/20 01:28:00;;;;;;;63.05;7.05;;;7.40;1.00;;;;;;5051694;28;20209;-69
2020/12/20 01:30:27;;;;;;;61.63;8.32;;;7.40;1.00;;;;;;5051747;28;20231;-70
2020/12/20 01:32:53;;;;;;;62.20;7.53;;;7.40;1.00;;;;;;5051489;28;20210;-69
2020/12/20 01:35:20;;;;;;;63.70;7.72;;;7.40;1.00;;;;;;5051380;28;20600;-69
2020/12/20 01:37:46;;;;;;;62.53;8.40;;;7.40;1.00;;;;;;5051360;28;20276;-69
2020/12/20 01:40:13;;;;;;;62.95;7.82;;;7.40;1.00;;;;;;5050988;28;20712;-69
2020/12/20 01:42:39;;;;;;;60.65;7.03;;;7.40;1.00;;;;;;5051327;28;20691;-69
2020/12/20 01:45:05;;;;;;;61.10;7.40;;;7.40;1.00;;;;;;5051218;28;20737;-69
2020/12/20 01:47:33;;;;;;;62.92;7.50;;;7.40;1.00;;;;;;5051654;28;20389;-69
2020/12/20 01:50:01;;;;;;;61.75;7.13;;;7.40;1.00;;;;;;5051066;28;20230;-69
2020/12/20 01:52:28;;;;;;;60.28;6.68;;;7.30;1.00;;;;;;5051248;28;20205;-69
2020/12/20 01:54:57;;;;;;;59.95;6.47;;;7.30;1.00;;;;;;5050629;28;20229;-69
2020/12/20 01:57:24;;;;;;;61.08;7.70;;;7.30;1.00;;;;;;5050843;28;20205;-69
2020/12/20 01:59:50;;;;;;;59.22;6.57;;;7.30;1.00;;;;;;5050858;28;20237;-70
2020/12/20 02:02:16;;;;;;;60.95;7.05;;;7.40;1.00;;;;;;5051321;28;20206;-69
2020/12/20 02:04:44;;;;;;;60.55;7.30;;;7.40;1.00;;;;;;5050678;28;20202;-69
2020/12/20 02:07:11;;;;;;;59.67;6.70;;;7.40;1.00;;;;;;5050554;28;20669;-69
2020/12/20 02:09:37;;;;;;;63.45;6.97;;;7.30;1.00;;;;;;5051082;28;20235;-69
2020/12/20 02:12:04;;;;;;;60.90;6.93;;;7.30;1.00;;;;;;5050776;28;20730;-69
2020/12/20 02:14:31;;;;;;;60.85;6.90;;;7.30;1.00;;;;;;5050432;28;20270;-69
2020/12/20 02:16:57;;;;;;;61.63;7.70;;;7.30;1.00;;;;;;5050884;28;20609;-69
2020/12/20 02:19:24;;;;;;;60.15;7.18;;;7.30;1.00;;;;;;5050675;28;20276;-70
2020/12/20 02:21:51;;;;;;;61.00;7.78;;;7.30;1.00;;;;;;5050485;28;20202;-69
2020/12/20 02:24:18;;;;;;;59.58;6.35;;;7.30;1.00;;;;;;5051416;28;20776;-69
2020/12/20 02:26:44;;;;;;;60.30;6.30;;;7.30;1.00;;;;;;5056969;28;20238;-69
2020/12/20 02:29:11;;;;;;;60.72;7.40;;;7.30;1.00;;;;;;5050490;28;20226;-69
2020/12/20 02:31:37;;;;;;;60.83;6.55;;;7.30;1.00;;;;;;5051139;28;20206;-69
2020/12/20 02:34:05;;;;;;;60.65;7.45;;;7.30;1.00;;;;;;5050798;28;20593;-69
2020/12/20 02:36:31;;;;;;;62.67;7.30;;;7.30;1.00;;;;;;5050802;28;20206;-69
2020/12/20 02:38:58;;;;;;;60.60;6.97;;;7.30;1.00;;;;;;5050734;28;20279;-69
2020/12/20 02:41:25;;;;;;;61.70;6.93;;;7.20;1.00;;;;;;5050835;28;20650;-69
2020/12/20 02:43:51;;;;;;;61.83;6.40;;;7.20;1.00;;;;;;5050534;28;20296;-69
2020/12/20 02:46:18;;;;;;;61.40;7.63;;;7.20;1.00;;;;;;5050432;28;20202;-69
2020/12/20 02:48:45;;;;;;;61.38;6.90;;;7.20;1.00;;;;;;5053403;28;20221;-68
2020/12/20 02:51:12;;;;;;;58.95;5.88;;;7.20;1.00;;;;;;5054528;28;20581;-69
2020/12/20 02:53:39;;;;;;;62.00;7.43;;;7.20;1.00;;;;;;5054296;28;20232;-69
2020/12/20 02:56:06;;;;;;;64.30;7.70;;;7.10;1.00;;;;;;5054049;28;20210;-69
2020/12/20 02:58:32;;;;;;;59.85;6.70;;;7.20;1.00;;;;;;5053828;28;20206;-69
2020/12/20 03:00:59;;;;;;;60.50;7.22;;;7.20;1.00;;;;;;5054314;28;20221;-69
2020/12/20 03:03:25;;;;;;;61.85;7.70;;;7.20;1.00;;;;;;5054246;28;20207;-69
2020/12/20 03:05:52;;;;;;;61.20;7.30;;;7.20;1.00;;;;;;5053854;28;20213;-69
2020/12/20 03:08:18;;;;;;;61.90;7.22;;;7.20;1.00;;;;;;5054075;28;20220;-69
2020/12/20 03:10:44;;;;;;;62.65;8.20;;;7.20;1.00;;;;;;5053910;28;20209;-69
2020/12/20 03:13:12;;;;;;;60.85;7.00;;;7.20;1.00;;;;;;5053832;28;20289;-69
2020/12/20 03:15:41;;;;;;;61.13;6.82;;;7.20;1.00;;;;;;5053473;28;20230;-69
2020/12/20 03:18:08;;;;;;;62.50;7.47;;;7.20;1.00;;;;;;5053776;28;20737;-69
2020/12/20 03:20:34;;;;;;;60.45;6.70;;;7.20;1.00;;;;;;5053735;28;20284;-69
2020/12/20 03:23:01;;;;;;;61.28;7.72;;;7.20;1.00;;;;;;5053873;28;20214;-69
2020/12/20 03:25:27;;;;;;;60.67;7.90;;;7.20;1.00;;;;;;5053223;28;20203;-69
2020/12/20 03:27:54;;;;;;;61.40;7.60;;;7.20;1.00;;;;;;5053667;28;20213;-69
2020/12/20 03:30:21;;;;;;;61.65;6.95;;;7.20;1.00;;;;;;5053724;28;20260;-69
2020/12/20 03:32:48;;;;;;;60.85;6.65;;;7.20;1.00;;;;;;5053545;28;20245;-69
2020/12/20 03:35:14;;;;;;;59.30;5.72;;;7.20;1.00;;;;;;5053192;28;20266;-69
2020/12/20 03:37:49;;;;;;;60.22;7.35;;;7.20;1.00;;;;;;5053511;28;20220;-69
2020/12/20 03:40:15;;;;;;;61.05;7.50;;;7.20;1.00;;;;;;5053282;28;20720;-69
2020/12/20 03:42:42;;;;;;;59.75;6.65;;;7.20;1.00;;;;;;5053591;28;20232;-69
2020/12/20 03:45:08;;;;;;;60.08;7.30;;;7.20;1.00;;;;;;5053375;28;20273;-69
2020/12/20 03:47:35;;;;;;;59.92;6.68;;;7.20;1.00;;;;;;5053224;28;20208;-69
2020/12/20 03:50:03;;;;;;;60.42;7.13;;;7.20;1.00;;;;;;5053484;28;20232;-69
2020/12/20 03:52:29;;;;;;;61.17;7.60;;;7.20;1.00;;;;;;5053037;28;20208;-69
2020/12/20 03:54:55;;;;;;;59.78;6.93;;;7.20;1.00;;;;;;5052704;28;20848;-69
2020/12/20 03:57:21;;;;;;;63.10;7.60;;;7.20;1.00;;;;;;5053361;28;20226;-69
2020/12/20 03:59:48;;;;;;;60.97;7.07;;;7.20;1.00;;;;;;5051666;28;20246;-68
2020/12/20 04:02:14;;;;;;;60.65;7.13;;;7.20;1.00;;;;;;5053176;28;20206;-69
2020/12/20 04:04:41;;;;;;;60.30;6.38;;;7.20;1.00;;;;;;5052676;28;20669;-69
2020/12/20 04:07:08;;;;;;;60.92;7.32;;;7.10;1.00;;;;;;5052822;28;20205;-69
2020/12/20 04:09:34;;;;;;;60.70;6.78;;;7.10;1.00;;;;;;5052597;28;20229;-69
2020/12/20 04:12:01;;;;;;;59.38;6.30;;;7.10;1.00;;;;;;5053089;28;20250;-69
2020/12/20 04:14:28;;;;;;;60.67;7.18;;;7.10;1.00;;;;;;5052379;28;20222;-70
2020/12/20 04:16:54;;;;;;;61.17;6.97;;;7.10;1.00;;;;;;5052939;28;20264;-69
2020/12/20 04:19:20;;;;;;;61.65;6.72;;;7.10;1.00;;;;;;5052639;28;20234;-69
2020/12/20 04:21:48;;;;;;;60.33;6.72;;;7.10;1.00;;;;;;5052472;28;20206;-69
2020/12/20 04:24:15;;;;;;;60.65;6.32;;;7.10;1.00;;;;;;5055253;28;20665;-69
2020/12/20 04:26:42;;;;;;;60.83;7.20;;;7.10;1.00;;;;;;5054482;28;20207;-69
2020/12/20 04:29:08;;;;;;;60.45;7.97;;;7.10;1.00;;;;;;5052610;28;20325;-69
2020/12/20 04:31:35;;;;;;;59.85;7.15;;;7.10;1.00;;;;;;5052375;28;20217;-69
2020/12/20 04:34:01;;;;;;;60.47;7.15;;;7.10;1.00;;;;;;5052246;28;20217;-68
2020/12/20 04:36:27;;;;;;;60.80;6.85;;;7.10;1.00;;;;;;5051852;28;20252;-69
2020/12/20 04:38:55;;;;;;;60.78;6.30;;;7.00;1.00;;;;;;5052338;28;20228;-69
2020/12/20 04:41:23;;;;;;;60.58;6.25;;;7.00;1.00;;;;;;5052346;28;20202;-69
2020/12/20 04:43:50;;;;;;;61.03;7.22;;;7.00;1.00;;;;;;5052169;28;20206;-69
2020/12/20 04:46:18;;;;;;;60.45;6.68;;;7.10;1.00;;;;;;5052130;28;20237;-69
2020/12/20 04:48:45;;;;;;;60.42;7.10;;;7.00;1.00;;;;;;5052045;28;20230;-69
2020/12/20 04:51:13;;;;;;;62.65;7.43;;;7.00;1.00;;;;;;5052241;28;20210;-69
2020/12/20 04:53:40;;;;;;;61.15;6.55;;;7.00;1.00;;;;;;5051891;28;20205;-69
2020/12/20 04:56:08;;;;;;;58.97;6.30;;;7.00;1.00;;;;;;5051897;28;20263;-69
2020/12/20 04:58:35;;;;;;;59.70;7.07;;;7.00;1.00;;;;;;5051808;28;20205;-69
2020/12/20 05:01:02;;;;;;;59.20;6.57;;;7.00;1.00;;;;;;5052068;28;20546;-70
2020/12/20 05:03:28;;;;;;;61.88;6.53;;;7.00;1.00;;;;;;5051779;28;20217;-69
2020/12/20 05:05:55;;;;;;;62.53;6.93;;;6.90;1.00;;;;;;5051448;28;20201;-69
2020/12/20 05:08:23;;;;;;;60.90;6.88;;;6.90;1.00;;;;;;5051946;28;20233;-69
2020/12/20 05:10:50;;;;;;;62.13;7.70;;;6.90;1.00;;;;;;5051299;28;20690;-69
2020/12/20 05:13:18;;;;;;;60.95;7.57;;;6.90;1.00;;;;;;5051821;28;20209;-68
2020/12/20 05:15:45;;;;;;;60.40;7.00;;;6.90;1.00;;;;;;5051354;28;20229;-69
2020/12/20 05:18:12;;;;;;;62.08;6.93;;;6.90;1.00;;;;;;5051577;28;20596;-69
2020/12/20 05:20:40;;;;;;;59.72;6.75;;;6.90;1.00;;;;;;5051386;28;20740;-69
2020/12/20 05:23:08;;;;;;;61.15;7.00;;;6.90;1.00;;;;;;5051740;28;20201;-69
2020/12/20 05:25:36;;;;;;;60.88;6.70;;;6.90;1.00;;;;;;5051476;28;20212;-68
2020/12/20 05:28:08;;;;;;;60.22;7.43;;;6.90;1.00;;;;;;5051577;28;20215;-69
2020/12/20 05:30:35;;;;;;;61.83;7.43;;;6.80;1.00;;;;;;5051313;28;20225;-69
2020/12/20 05:33:03;;;;;;;60.47;6.65;;;6.80;1.00;;;;;;5051602;28;20212;-70
2020/12/20 05:35:29;;;;;;;61.33;7.20;;;6.80;1.00;;;;;;5051015;28;20303;-69
2020/12/20 05:37:56;;;;;;;60.20;6.88;;;6.80;1.00;;;;;;5051551;28;20216;-69
2020/12/20 05:40:28;;;;;;;61.20;7.03;;;6.80;1.00;;;;;;5051245;28;20607;-69
2020/12/20 05:42:57;;;;;;;59.67;6.78;;;6.80;1.00;;;;;;5051108;28;20209;-69
2020/12/20 05:45:26;;;;;;;63.90;7.15;;;6.80;1.00;;;;;;5051191;28;20204;-69
2020/12/20 05:47:53;;;;;;;61.30;8.05;;;6.80;1.00;;;;;;5051634;28;20205;-68
2020/12/20 05:50:20;;;;;;;60.35;7.03;;;6.80;1.00;;;;;;5051175;28;20225;-69
2020/12/20 05:53:00;;;;;;;59.65;6.47;;;6.80;1.00;;;;;;5051343;28;20205;-69
2020/12/20 05:55:35;;;;;;;60.58;7.30;;;6.80;1.00;;;;;;5050727;28;20604;-69
2020/12/20 05:58:10;;;;;;;61.25;7.03;;;6.80;1.00;;;;;;5051418;28;20263;-69
2020/12/20 06:00:38;;;;;;;60.83;6.72;;;6.80;1.00;;;;;;5050901;28;20638;-68
2020/12/20 06:03:05;;;;;;;60.90;7.13;;;6.70;1.00;;;;;;5051774;28;20213;-70
2020/12/20 06:05:34;;;;;;;60.33;7.03;;;6.70;1.00;;;;;;5051087;28;20581;-70
2020/12/20 06:08:09;;;;;;;61.47;7.60;;;6.70;1.00;;;;;;5051156;28;20206;-70
2020/12/20 06:10:39;;;;;;;60.88;6.63;;;6.70;1.00;;;;;;5051248;28;20225;-70
2020/12/20 06:13:07;;;;;;;59.42;6.57;;;6.70;1.00;;;;;;5051327;28;20210;-70
2020/12/20 06:15:37;;;;;;;59.25;6.05;;;6.80;1.00;;;;;;5051165;28;20592;-70
2020/12/20 06:18:08;;;;;;;62.30;8.05;;;6.70;1.00;;;;;;5051231;28;20211;-70
2020/12/20 06:20:46;;;;;;;62.70;7.60;;;6.70;1.00;;;;;;5050775;28;20234;-70
2020/12/20 06:23:13;;;;;;;60.78;7.20;;;6.70;1.00;;;;;;5059809;28;20296;-70
2020/12/20 06:25:44;;;;;;;59.10;6.70;;;6.70;1.00;;;;;;5058988;28;20580;-69
2020/12/20 06:28:16;;;;;;;59.90;6.40;;;6.70;1.00;;;;;;5055331;28;20207;-69
2020/12/20 06:30:42;;;;;;;59.72;7.10;;;6.70;1.00;;;;;;5055717;28;20675;-69
2020/12/20 06:33:16;;;;;;;59.85;6.50;;;6.60;1.00;;;;;;5054896;28;20205;-70
2020/12/20 06:35:42;;;;;;;59.63;6.35;;;6.70;1.00;;;;;;5054815;28;20231;-69
2020/12/20 06:38:12;;;;;;;61.03;7.47;;;6.60;1.00;;;;;;5055410;28;20233;-70
2020/12/20 06:40:43;;;;;;;61.60;6.97;;;6.60;1.00;;;;;;5054807;28;20226;-69
2020/12/20 06:43:10;;;;;;;61.53;6.65;;;6.60;1.00;;;;;;5054668;28;20674;-70
2020/12/20 06:45:45;;;;;;;60.88;6.63;;;6.60;1.00;;;;;;5054178;28;20256;-69
2020/12/20 06:48:13;;;;;;;63.13;7.25;;;6.60;1.00;;;;;;5054909;28;20217;-70
2020/12/20 06:50:44;;;;;;;60.00;7.00;;;6.60;1.00;;;;;;5054455;28;20632;-70
2020/12/20 06:53:12;;;;;;;60.13;6.72;;;6.60;1.00;;;;;;5054619;28;20210;-69
2020/12/20 06:55:38;;;;;;;59.67;6.18;;;6.60;1.00;;;;;;5054146;28;20293;-70
2020/12/20 06:58:12;;;;;;;60.03;6.55;;;6.70;1.00;;;;;;5054354;28;20292;-69
2020/12/20 07:00:47;;;;;;;59.70;7.07;;;6.60;1.00;;;;;;5054155;28;20272;-70
2020/12/20 07:03:38;;;;;;;61.10;7.68;;;6.60;1.00;;;;;;5054718;28;20292;-69
2020/12/20 07:06:12;;;;;;;59.65;6.70;;;6.60;1.00;;;;;;5054206;28;20297;-69
2020/12/20 07:08:39;;;;;;;61.55;7.22;;;6.60;1.00;;;;;;5054242;28;20259;-69
2020/12/20 07:11:08;;;;;;;59.17;6.00;;;6.60;1.00;;;;;;5054637;28;20213;-69
2020/12/20 07:13:36;;;;;;;59.75;6.88;;;6.60;1.00;;;;;;5054196;28;20301;-69
2020/12/20 07:16:07;;;;;;;60.47;6.45;;;6.60;1.00;;;;;;5054047;28;20248;-69
2020/12/20 07:19:04;;;;;;;60.25;6.53;;;6.60;1.00;;;;;;5054624;28;20631;-70
2020/12/20 07:21:46;;;;;;;60.30;6.90;;;6.60;1.00;;;;;;4973402;28;20208;-70
2020/12/20 07:24:16;;;;;;;60.38;5.95;;;6.60;1.00;;;;;;5044573;28;20259;-70
2020/12/20 07:26:43;;;;;;;61.72;6.55;;;6.60;1.00;;;;;;5054314;28;20206;-69
2020/12/20 07:29:10;;;;;;;60.33;6.85;;;6.50;1.00;;;;;;5054370;28;20599;-70
2020/12/20 07:31:36;;;;;;;61.00;6.13;;;6.50;1.00;;;;;;5055203;28;20347;-70
2020/12/20 07:34:05;;;;;;;61.72;7.00;;;6.60;1.00;;;;;;5054409;28;20234;-70
2020/12/20 07:36:32;;;;;;;60.70;6.68;;;6.60;1.00;;;;;;5054536;28;20205;-68
2020/12/20 07:38:59;;;;;;;59.97;7.30;;;6.60;1.00;;;;;;5053688;28;20580;-70
2020/12/20 07:41:25;;;;;;;58.42;5.63;;;6.60;1.00;;;;;;5053659;28;20288;-70
2020/12/20 07:43:52;;;;;;;62.40;7.60;;;6.60;1.00;;;;;;5053468;28;20590;-70
2020/12/20 07:46:20;;;;;;;61.17;6.85;;;6.60;1.00;;;;;;5053702;28;20213;-70
2020/12/20 07:48:47;;;;;;;61.35;7.38;;;6.60;1.00;;;;;;5053805;28;20283;-70
2020/12/20 07:51:16;;;;;;;61.78;7.75;;;6.70;1.00;;;;;;5053981;28;20641;-70
2020/12/20 07:53:47;;;;;;;60.72;6.85;;;6.70;1.00;;;;;;5053793;28;20286;-69
2020/12/20 07:56:21;;;;;;;61.35;7.15;;;6.80;1.00;;;;;;5051154;28;20251;-70
2020/12/20 07:58:48;;;;;;;63.10;6.85;;;6.80;1.00;;;;;;5053178;28;20605;-69
2020/12/20 08:01:14;;;;;;;59.40;6.07;;;6.90;1.00;;;;;;5052992;28;20730;-68
2020/12/20 08:03:41;;;;;;;61.33;7.03;;;6.90;1.00;;;;;;5053202;28;20587;-70
2020/12/20 08:06:09;;;;;;;60.22;6.18;;;6.90;1.00;;;;;;5052373;28;20296;-69
2020/12/20 08:08:36;;;;;;;60.15;6.40;;;7.00;1.00;;;;;;5053408;28;20202;-70
2020/12/20 08:11:04;;;;;;;61.25;6.72;;;7.10;1.00;;;;;;5053104;28;20242;-69
2020/12/20 08:13:32;;;;;;;61.10;6.85;;;7.10;1.00;;;;;;5053407;28;20299;-69
2020/12/20 08:15:58;;;;;;;61.17;6.68;;;7.10;1.00;;;;;;5053053;28;20241;-70
2020/12/20 08:18:25;;;;;;;60.72;7.50;;;7.20;1.00;;;;;;5053127;28;20218;-70
2020/12/20 08:20:52;;;;;;;60.75;7.45;;;7.20;1.00;;;;;;5055095;28;20220;-70
2020/12/20 08:23:21;;;;;;;62.17;6.32;;;7.30;1.00;;;;;;5056351;28;20206;-70
2020/12/20 08:25:49;;;;;;;60.20;6.93;;;7.40;1.00;;;;;;5055421;28;20201;-70
2020/12/20 08:28:16;;;;;;;60.28;6.80;;;7.40;1.00;;;;;;5055329;28;20231;-69
2020/12/20 08:30:42;;;;;;;60.95;7.85;;;7.50;1.00;;;;;;5054319;28;20261;-70
2020/12/20 08:33:08;;;;;;;60.90;7.35;;;7.60;1.00;;;;;;5054329;28;20298;-69
2020/12/20 08:35:35;;;;;;;61.10;7.50;;;7.60;1.00;;;;;;5054504;28;20698;-69
2020/12/20 08:38:01;;;;;;;60.35;7.13;;;7.70;1.00;;;;;;5052429;28;20261;-70
2020/12/20 08:40:31;;;;;;;61.97;7.90;;;7.70;1.00;;;;;;5052552;28;20237;-69
2020/12/20 08:42:59;;;;;;;61.42;6.82;;;7.80;1.00;;;;;;5052705;28;20216;-70
2020/12/20 08:45:28;;;;;;;61.67;7.25;;;7.90;1.00;;;;;;5051385;28;20203;-69
2020/12/20 08:48:01;;;;;;;61.30;6.60;;;7.90;1.00;;;;;;5052488;28;20227;-70
2020/12/20 08:50:31;;;;;;;60.40;6.87;;;8.00;1.00;;;;;;5051912;28;20476;-69
2020/12/20 08:53:01;;;;;;;60.78;6.82;;;8.10;1.00;;;;;;5052419;28;20492;-69
2020/12/20 08:55:28;;;;;;;59.93;6.80;;;8.20;1.00;;;;;;5051683;28;20256;-69
2020/12/20 08:58:05;;;;;;;60.03;7.10;;;8.30;1.00;;;;;;5052204;28;20447;-69
2020/12/20 09:00:32;;;;;;;61.47;6.80;;;8.40;1.00;;;;;;5050192;28;21019;-69
2020/12/20 09:02:59;;;;;;;61.27;6.80;;;8.50;1.00;;;;;;5051728;28;20485;-69
2020/12/20 09:05:30;;;;;;;59.43;6.40;;;8.50;1.00;;;;;;5051862;28;20454;-70
2020/12/20 09:07:57;;;;;;;60.37;6.77;;;8.60;1.00;;;;;;5051459;28;20450;-70
2020/12/20 09:10:30;;;;;;;61.67;7.43;;;8.70;1.00;;;;;;5051679;28;20583;-70
2020/12/20 09:12:58;;;;;;;60.83;7.00;;;8.80;1.00;;;;;;5051701;28;20900;-70
2020/12/20 09:15:35;;;;;;;62.67;6.80;;;8.90;1.00;;;;;;5051286;28;20533;-70
2020/12/20 09:18:13;;;;;;;62.10;7.03;;;9.00;1.00;;;;;;5051609;28;20944;-71
2020/12/20 09:20:42;;;;;;;61.73;6.70;;;9.10;1.00;;;;;;5051605;28;21007;-70
2020/12/20 09:23:17;;;;;;;61.10;6.90;;;9.20;1.00;;;;;;5051471;28;20965;-70
2020/12/20 09:25:44;;;;;;;61.00;7.73;;;9.30;1.00;;;;;;5051476;28;20823;-70
2020/12/20 09:28:12;;;;;;;61.53;7.60;;;9.50;1.00;;;;;;5051489;28;20836;-70
2020/12/20 09:30:42;;;;;;;60.97;7.13;;;9.60;1.00;;;;;;5051534;28;20470;-69
2020/12/20 09:33:23;;;;;;;60.20;6.73;;;9.80;1.00;;;;;;5051579;28;20983;-69
2020/12/20 09:35:51;;;;;;;59.47;6.67;;;10.20;1.00;;;;;;5050934;28;20973;-70
2020/12/20 09:38:18;;;;;;;60.07;6.50;;;10.50;1.00;;;;;;5051280;28;20490;-70
2020/12/20 09:40:44;;;;;;;61.03;6.90;;;10.90;1.00;;;;;;5051682;28;20803;-70
2020/12/20 09:43:17;;;;;;;60.30;6.80;;;11.20;1.00;;;;;;5051614;28;20898;-70
2020/12/20 09:45:45;;;;;;;60.80;6.90;;;11.50;1.00;;;;;;5051398;28;20477;-71
2020/12/20 09:48:11;;;;;;;59.37;6.70;;;11.90;1.00;;;;;;5051440;28;20456;-70
2020/12/20 09:50:38;;;;;;;61.30;7.30;;;12.20;1.00;;;;;;5051070;28;20483;-70
2020/12/20 09:53:04;;;;;;;63.73;6.17;;;12.50;1.00;;;;;;5051074;28;20452;-70
2020/12/20 09:55:31;;;;;;;60.07;6.40;;;12.80;1.00;;;;;;5051022;28;20491;-71
2020/12/20 09:57:58;;;;;;;61.37;6.60;;;13.00;1.00;;;;;;5055042;28;20452;-70
2020/12/20 10:00:24;;;;;;;60.50;7.30;;;13.10;1.00;;;;;;5054372;28;20518;-70
2020/12/20 10:02:51;;;;;;;59.33;6.00;;;13.20;1.00;;;;;;5054964;28;20444;-70
2020/12/20 10:05:18;;;;;;;60.33;6.30;;;13.20;1.00;;;;;;5055266;28;20793;-71
2020/12/20 10:07:44;;;;;;;59.27;6.50;;;13.30;1.00;;;;;;5055149;28;20482;-70
2020/12/20 10:10:10;;;;;;;62.33;7.40;;;13.40;1.00;;;;;;5055304;28;20499;-70
2020/12/20 10:12:37;;;;;;;59.57;6.80;;;13.50;1.00;;;;;;5055425;28;20930;-70
2020/12/20 10:15:04;;;;;;;63.00;6.70;;;13.70;1.00;;;;;;5054668;28;21030;-70
2020/12/20 10:17:30;;;;;;;62.10;7.10;;;13.70;1.00;;;;;;5055250;28;20459;-69
2020/12/20 10:19:57;;;;;;;60.70;6.10;;;13.50;1.00;;;;;;5054854;28;20463;-70
2020/12/20 10:22:24;;;;;;;61.67;7.20;;;13.40;1.00;;;;;;5055157;28;20479;-70
2020/12/20 10:24:50;;;;;;;61.37;6.87;;;13.30;1.00;;;;;;5060457;28;20452;-70
2020/12/20 10:27:19;;;;;;;61.67;7.17;;;13.10;1.00;;;;;;5057731;28;20451;-69
2020/12/20 10:29:45;;;;;;;59.93;6.63;;;12.80;1.00;;;;;;5054778;28;20487;-70
2020/12/20 10:32:12;;;;;;;60.43;6.23;;;12.60;1.00;;;;;;5055054;28;20542;-70
2020/12/20 10:34:38;;;;;;;59.47;6.30;;;12.30;1.00;;;;;;5054544;28;20483;-70
2020/12/20 10:37:05;;;;;;;61.03;6.83;;;12.10;1.00;;;;;;5054815;28;20480;-69
2020/12/20 10:39:32;;;;;;;62.07;7.37;;;12.00;1.00;;;;;;5054817;28;20467;-70
2020/12/20 10:41:58;;;;;;;61.43;6.47;;;11.90;1.00;;;;;;5054810;28;20835;-70
2020/12/20 10:44:25;;;;;;;60.90;7.40;;;11.80;1.00;;;;;;5054849;28;21101;-71
2020/12/20 10:46:53;;;;;;;62.33;7.47;;;11.60;1.00;;;;;;5054327;28;20452;-69
2020/12/20 10:49:19;;;;;;;60.10;6.70;;;11.50;1.00;;;;;;5054281;28;20472;-69
2020/12/20 10:51:51;;;;;;;60.67;6.43;;;11.40;1.00;;;;;;5054689;28;20455;-70
2020/12/20 10:54:19;;;;;;;59.30;6.10;;;11.30;1.00;;;;;;5054576;28;20461;-70
2020/12/20 10:56:47;;;;;;;60.17;6.57;;;11.30;1.00;;;;;;5054162;28;20459;-68
2020/12/20 10:59:13;;;;;;;62.50;7.03;;;11.20;1.00;;;;;;5054121;28;20491;-69
2020/12/20 11:01:40;;;;;;;61.97;7.53;;;11.10;1.00;;;;;;5054127;28;20455;-69
2020/12/20 11:04:06;;;;;;;59.93;5.80;;;11.00;1.00;;;;;;5054582;28;20450;-69
2020/12/20 11:06:32;;;;;;;60.40;7.50;;;11.00;1.00;;;;;;5054104;28;20486;-70
2020/12/20 11:08:59;;;;;;;62.10;7.03;;;11.00;1.00;;;;;;5053567;28;20521;-70
2020/12/20 11:11:30;;;;;;;61.57;7.93;;;11.10;1.00;;;;;;5054401;28;20490;-70
2020/12/20 11:13:57;;;;;;;62.10;7.23;;;11.00;1.00;;;;;;5054114;28;20440;-70
2020/12/20 11:16:24;;;;;;;61.97;7.50;;;11.00;1.00;;;;;;5053761;28;21175;-71
2020/12/20 11:18:50;;;;;;;61.70;7.23;;;11.00;1.00;;;;;;5053991;28;20483;-69
2020/12/20 11:21:18;;;;;;;63.77;7.50;;;11.00;1.00;;;;;;5054096;28;20835;-70
2020/12/20 11:23:45;;;;;;;65.97;8.60;;;11.00;1.00;;;;;;5053823;28;20448;-70
2020/12/20 11:26:13;;;;;;;63.30;8.47;;;11.00;1.00;;;;;;5053677;28;20462;-70
2020/12/20 11:28:43;;;;;;;61.33;7.17;;;11.20;1.00;;;;;;5053587;28;20555;-70
2020/12/20 11:31:10;;;;;;;65.40;7.90;;;11.40;1.00;;;;;;5053833;28;20447;-70
2020/12/20 11:33:36;;;;;;;61.20;7.50;;;11.80;1.00;;;;;;5053860;28;20826;-69
2020/12/20 11:36:03;;;;;;;60.40;7.50;;;12.40;1.00;;;;;;5053539;28;20865;-70
2020/12/20 11:38:29;;;;;;;61.70;7.80;;;13.00;1.00;;;;;;5053569;28;20951;-71
2020/12/20 11:40:56;;;;;;;61.07;7.67;;;13.30;1.00;;;;;;5053523;28;21000;-71
2020/12/20 11:43:22;;;;;;;62.33;7.17;;;13.50;1.00;;;;;;5053363;28;20452;-70
2020/12/20 11:45:50;;;;;;;61.20;7.50;;;13.50;1.00;;;;;;5053117;28;20452;-69
2020/12/20 11:48:17;;;;;;;62.93;8.47;;;13.60;1.00;;;;;;5053709;28;20459;-70
2020/12/20 11:50:43;;;;;;;62.07;7.47;;;13.50;1.00;;;;;;5053557;28;20543;-70
2020/12/20 11:53:09;;;;;;;60.07;7.17;;;13.50;1.00;;;;;;5053457;28;20448;-70
2020/12/20 11:55:36;;;;;;;60.20;7.47;;;13.40;1.00;;;;;;5052983;28;20479;-70
2020/12/20 11:58:04;;;;;;;59.80;7.03;;;13.40;1.00;;;;;;5053022;28;20534;-70
2020/12/20 12:00:30;;;;;;;62.17;8.50;;;13.30;1.00;;;;;;5052977;28;21004;-70
2020/12/20 12:02:57;;;;;;;60.97;7.80;;;13.20;1.00;;;;;;5076497;22;20595;-72
2020/12/20 12:05:24;;;;;;;60.80;7.60;;;13.20;1.00;;;;;;5052909;28;20771;-70
2020/12/20 12:07:50;;;;;;;59.57;6.67;;;13.20;1.00;;;;;;5053144;28;20448;-71
2020/12/20 12:10:16;;;;;;;60.50;7.60;;;13.30;1.00;;;;;;5053047;28;20452;-71
2020/12/20 12:12:43;;;;;;;60.60;8.00;;;13.30;1.00;;;;;;5052649;28;20501;-71
2020/12/20 12:15:09;;;;;;;61.90;7.90;;;13.30;1.00;;;;;;5052789;28;20490;-71
2020/12/20 12:17:35;;;;;;;62.57;8.30;;;13.40;1.00;;;;;;5053088;28;20888;-71
2020/12/20 12:20:03;;;;;;;62.30;8.10;;;13.40;1.00;;;;;;5051991;28;20996;-71
2020/12/20 12:22:29;;;;;;;61.27;8.30;;;13.40;1.00;;;;;;5052731;28;20475;-71
2020/12/20 12:24:55;;;;;;;63.33;8.30;;;13.40;1.00;;;;;;5053032;28;20653;-71
2020/12/20 12:27:21;;;;;;;65.20;8.50;;;13.40;1.00;;;;;;5052316;28;20903;-71
2020/12/20 12:29:48;;;;;;;65.53;8.90;;;13.50;1.00;;;;;;5052931;28;20452;-71
2020/12/20 12:32:14;;;;;;;62.83;9.40;;;13.60;1.00;;;;;;5052406;28;21050;-71
2020/12/20 12:34:40;;;;;;;63.10;10.07;;;13.60;1.00;;;;;;5052625;28;20533;-71
2020/12/20 12:37:07;;;;;;;64.00;9.00;;;13.70;1.00;;;;;;5052272;28;20484;-71
2020/12/20 12:39:34;;;;;;;62.87;9.07;;;13.80;1.00;;;;;;5052254;28;20455;-71
2020/12/20 12:42:04;;;;;;;63.90;8.80;;;14.00;1.00;;;;;;5052278;28;20505;-71
2020/12/20 12:44:31;;;;;;;65.30;9.17;;;14.10;1.00;;;;;;5052473;28;20499;-71
2020/12/20 12:46:57;;;;;;;62.73;9.40;;;14.00;1.00;;;;;;5052083;28;20444;-71
2020/12/20 12:49:25;;;;;;;63.90;10.07;;;13.90;1.00;;;;;;5052584;28;20459;-71
2020/12/20 12:51:51;;;;;;;63.13;9.20;;;13.70;1.00;;;;;;5052284;28;20529;-71
2020/12/20 12:54:19;;;;;;;63.70;9.47;;;13.50;1.00;;;;;;5051880;28;20475;-71
2020/12/20 12:56:47;;;;;;;62.93;9.47;;;13.30;1.00;;;;;;5051916;28;20973;-71
2020/12/20 12:59:13;;;;;;;61.57;8.60;;;13.10;1.00;;;;;;5052115;28;20444;-71